createdAt,value
2019-05-09T00:02:30.469Z,99331.57
2019-05-09T00:04:59.646Z,99331.57
2019-05-09T00:07:28.832Z,99335.88
2019-05-09T00:09:58.127Z,99341.44
2019-05-09T00:12:27.316Z,99341.44
2019-05-09T00:14:56.489Z,99344.00
2019-05-09T00:17:25.662Z,99344.74
2019-05-09T00:19:56.489Z,99338.25
2019-05-09T00:22:25.667Z,99348.00
2019-05-09T00:24:54.853Z,99340.58
2019-05-09T00:27:24.087Z,99340.58
2019-05-09T00:29:53.385Z,99336.06
2019-05-09T00:32:26.887Z,99330.60
2019-05-09T00:35:14.251Z,99309.16
2019-05-09T00:38:00.379Z,99340.29
2019-05-09T00:40:29.581Z,99340.29
2019-05-09T00:42:58.751Z,99334.30
2019-05-09T00:48:39.998Z,99337.34
2019-05-09T00:51:09.196Z,99336.88
2019-05-09T00:53:38.387Z,99334.92
2019-05-09T00:56:07.557Z,99338.11
2019-05-09T00:58:36.743Z,99338.07
2019-05-09T01:01:05.979Z,99343.31
2019-05-09T01:03:35.165Z,99338.44
2019-05-09T01:06:04.560Z,99342.92
2019-05-09T01:08:33.884Z,99335.75
2019-05-09T01:11:11.419Z,99334.31
2019-05-09T01:13:34.334Z,99341.23
2019-05-09T01:16:04.708Z,99332.17
2019-05-09T01:18:35.165Z,99332.17
2019-05-09T01:21:04.515Z,99340.23
2019-05-09T01:23:34.451Z,99331.35
2019-05-09T01:26:04.160Z,99330.40
2019-05-09T01:28:34.066Z,99336.61
2019-05-09T01:31:04.211Z,99335.84
2019-05-09T01:33:35.139Z,99341.33
2019-05-09T01:36:05.309Z,99338.25
2019-05-09T01:38:34.488Z,99331.55
2019-05-09T01:41:04.128Z,99335.82
2019-05-09T01:43:33.877Z,99330.59
2019-05-09T01:46:03.929Z,99335.41
2019-05-09T01:48:34.072Z,99334.83
2019-05-09T01:51:03.584Z,99336.53
2019-05-09T01:53:36.758Z,99334.73
2019-05-09T01:56:06.033Z,99341.44
2019-05-09T01:58:35.272Z,99332.05
2019-05-09T02:01:06.236Z,99332.05
2019-05-09T02:03:35.485Z,99331.91
2019-05-09T02:06:05.514Z,99331.91
2019-05-09T02:08:34.803Z,99319.53
2019-05-09T02:11:04.426Z,99319.53
2019-05-09T02:13:34.047Z,99323.58
2019-05-09T02:16:07.517Z,99324.88
2019-05-09T02:18:50.428Z,99320.90
2019-05-09T02:21:19.668Z,99321.73
2019-05-09T02:23:48.825Z,99321.70
2019-05-09T02:26:18.019Z,99321.70
2019-05-09T02:28:47.202Z,99322.94
2019-05-09T02:31:16.766Z,99321.52
2019-05-09T02:33:46.116Z,99321.52
2019-05-09T02:36:18.705Z,99321.50
2019-05-09T02:38:48.662Z,99324.77
2019-05-09T02:41:19.582Z,99324.77
2019-05-09T02:44:09.065Z,99314.53
2019-05-09T02:46:44.349Z,99321.73
2019-05-09T02:49:13.533Z,99322.86
2019-05-09T02:51:42.701Z,99322.86
2019-05-09T02:54:11.875Z,99319.33
2019-05-09T02:56:41.064Z,99316.94
2019-05-09T02:59:12.066Z,99319.03
2019-05-09T03:01:59.021Z,99319.03
2019-05-09T03:04:28.587Z,99316.47
2019-05-09T03:06:59.684Z,99316.47
2019-05-09T03:09:28.968Z,99317.92
2019-05-09T03:11:59.252Z,99317.92
2019-05-09T03:14:29.152Z,99311.67
2019-05-09T03:17:00.260Z,99311.67
2019-05-09T03:19:30.111Z,99321.41
2019-05-09T03:22:18.778Z,99308.80
2019-05-09T03:24:48.783Z,99318.54
2019-05-09T03:27:28.938Z,99318.68
2019-05-09T03:29:59.887Z,99319.33
2019-05-09T03:32:29.885Z,99319.33
2019-05-09T03:34:59.124Z,99322.78
2019-05-09T03:37:28.310Z,99322.78
2019-05-09T03:39:58.130Z,99319.20
2019-05-09T03:42:39.691Z,99319.20
2019-05-09T03:44:58.330Z,99309.42
2019-05-09T03:47:29.153Z,99316.20
2019-05-09T03:50:08.985Z,99315.98
2019-05-09T03:52:38.153Z,99315.98
2019-05-09T03:55:12.251Z,99313.33
2019-05-09T03:57:51.829Z,99313.33
2019-05-09T04:00:21.347Z,99313.70
2019-05-09T04:02:50.528Z,99315.56
2019-05-09T04:05:19.706Z,99315.56
2019-05-09T04:07:48.877Z,99318.66
2019-05-09T04:10:18.183Z,99314.34
2019-05-09T04:12:56.289Z,99312.64
2019-05-09T04:15:19.097Z,99309.28
2019-05-09T04:17:48.427Z,99311.77
2019-05-09T04:20:18.618Z,99311.77
2019-05-09T04:22:49.097Z,99316.06
2019-05-09T04:25:20.079Z,99310.84
2019-05-09T04:27:50.897Z,99310.84
2019-05-09T04:30:20.067Z,99317.67
2019-05-09T04:32:49.236Z,99317.02
2019-05-09T04:35:19.467Z,99317.02
2019-05-09T04:37:48.640Z,99323.52
2019-05-09T04:40:18.294Z,99326.33
2019-05-09T04:42:47.570Z,99326.33
2019-05-09T04:45:33.143Z,99327.58
2019-05-09T04:48:01.208Z,99327.58
2019-05-09T04:50:30.362Z,99322.83
2019-05-09T04:52:59.551Z,99346.37
2019-05-09T04:55:30.409Z,99326.73
2019-05-09T04:58:00.198Z,99326.03
2019-05-09T05:00:31.147Z,99333.13
2019-05-09T05:03:01.255Z,99332.42
2019-05-09T05:05:30.456Z,99334.60
2019-05-09T05:07:59.669Z,99334.60
2019-05-09T05:10:28.921Z,99340.17
2019-05-09T05:12:58.057Z,99340.17
2019-05-09T05:15:27.672Z,99335.48
2019-05-09T05:17:58.268Z,99345.77
2019-05-09T05:20:29.325Z,99345.77
2019-05-09T05:23:00.065Z,99346.05
2019-05-09T05:25:29.172Z,99347.30
2019-05-09T05:27:58.351Z,99344.62
2019-05-09T05:30:28.366Z,99344.62
2019-05-09T05:33:01.961Z,99343.50
2019-05-09T05:35:37.573Z,99343.50
2019-05-09T05:38:08.562Z,99350.86
2019-05-09T05:40:45.121Z,99350.86
2019-05-09T05:43:08.953Z,99343.67
2019-05-09T05:45:39.904Z,99343.67
2019-05-09T05:48:10.716Z,99350.25
2019-05-09T05:50:39.900Z,99340.86
2019-05-09T05:53:09.002Z,99348.20
2019-05-09T05:55:38.199Z,99347.59
2019-05-09T05:58:08.564Z,99347.59
2019-05-09T06:00:38.012Z,99350.38
2019-05-09T06:03:08.733Z,99355.83
2019-05-09T06:05:38.563Z,99348.19
2019-05-09T06:08:08.316Z,99348.19
2019-05-09T06:10:38.051Z,99351.52
2019-05-09T06:13:07.965Z,99351.20
2019-05-09T06:15:38.122Z,99355.11
2019-05-09T06:18:07.966Z,99355.76
2019-05-09T06:20:38.538Z,99360.06
2019-05-09T06:23:08.594Z,99365.55
2019-05-09T06:25:38.974Z,99367.78
2019-05-09T06:28:08.323Z,99372.70
2019-05-09T06:30:40.952Z,99368.60
2019-05-09T06:33:09.256Z,99370.25
2019-05-09T06:35:58.664Z,99378.78
2019-05-09T06:38:28.261Z,99380.26
2019-05-09T06:40:58.248Z,99380.26
2019-05-09T06:43:35.000Z,99379.78
2019-05-09T06:46:20.142Z,99362.97
2019-05-09T06:48:49.339Z,99370.09
2019-05-09T06:51:21.212Z,99382.05
2019-05-09T06:53:49.405Z,99385.15
2019-05-09T06:56:18.585Z,99387.05
2019-05-09T06:58:48.184Z,99395.80
2019-05-09T07:01:19.087Z,99397.00
2019-05-09T07:04:05.111Z,99397.81
2019-05-09T07:06:38.743Z,99396.98
2019-05-09T07:09:17.509Z,99385.13
2019-05-09T07:11:48.672Z,99396.22
2019-05-09T07:14:32.634Z,99397.82
2019-05-09T07:17:00.055Z,99392.77
2019-05-09T07:19:29.300Z,99395.39
2019-05-09T07:22:02.945Z,99388.30
2019-05-09T07:24:34.691Z,99390.86
2019-05-09T07:27:03.886Z,99396.76
2019-05-09T07:29:34.977Z,99398.25
2019-05-09T07:32:08.707Z,99388.92
2019-05-09T07:34:41.976Z,99392.78
2019-05-09T07:37:11.166Z,99392.06
2019-05-09T07:39:40.355Z,99390.50
2019-05-09T07:42:09.532Z,99394.48
2019-05-09T07:44:48.437Z,99394.61
2019-05-09T07:47:09.592Z,99401.42
2019-05-09T07:49:39.685Z,99401.98
2019-05-09T07:52:10.390Z,99402.58
2019-05-09T07:54:39.831Z,99405.27
2019-05-09T07:57:09.092Z,99400.83
2019-05-09T07:59:38.920Z,99403.53
2019-05-09T08:02:08.858Z,99402.22
2019-05-09T08:04:38.707Z,99404.75
2019-05-09T08:07:08.559Z,99411.86
2019-05-09T08:09:38.743Z,99407.59
2019-05-09T08:12:08.151Z,99417.25
2019-05-09T08:14:37.886Z,99416.42
2019-05-09T08:17:08.556Z,99413.15
2019-05-09T08:19:38.203Z,99420.58
2019-05-09T08:22:08.118Z,99420.85
2019-05-09T08:24:38.114Z,99416.53
2019-05-09T08:27:08.506Z,99415.11
2019-05-09T08:29:38.690Z,99420.00
2019-05-09T08:32:08.027Z,99422.83
2019-05-09T08:34:37.922Z,99423.55
2019-05-09T08:37:08.116Z,99432.81
2019-05-09T08:39:38.308Z,99435.40
2019-05-09T08:42:08.688Z,99433.30
2019-05-09T08:44:41.909Z,99440.88
2019-05-09T08:47:08.976Z,99444.72
2019-05-09T08:49:47.350Z,99450.49
2019-05-09T08:52:19.718Z,99444.34
2019-05-09T08:54:57.953Z,99441.75
2019-05-09T08:57:28.847Z,99456.66
2019-05-09T08:59:58.901Z,99454.66
2019-05-09T09:02:28.501Z,99457.73
2019-05-09T09:04:58.470Z,99469.11
2019-05-09T09:07:29.660Z,99456.50
2019-05-09T09:09:58.610Z,99458.59
2019-05-09T09:12:34.037Z,99461.73
2019-05-09T09:14:58.860Z,99465.65
2019-05-09T09:17:28.157Z,99461.41
2019-05-09T09:19:58.330Z,99470.07
2019-05-09T09:22:28.526Z,99463.12
2019-05-09T09:24:58.609Z,99473.56
2019-05-09T09:27:29.186Z,99474.84
2019-05-09T09:30:00.261Z,99482.00
2019-05-09T09:32:29.234Z,99474.27
2019-05-09T09:34:58.846Z,99475.42
2019-05-09T09:37:43.800Z,99477.05
2019-05-09T09:39:58.925Z,99477.34
2019-05-09T09:42:28.398Z,99478.92
2019-05-09T09:44:58.515Z,99478.80
2019-05-09T09:47:28.575Z,99482.27
2019-05-09T09:49:59.526Z,99488.38
2019-05-09T09:52:30.635Z,99494.14
2019-05-09T09:54:59.924Z,99496.53
2019-05-09T09:57:29.114Z,99495.99
2019-05-09T09:59:59.979Z,99493.70
2019-05-09T10:02:37.847Z,99493.36
2019-05-09T10:05:08.058Z,99502.10
2019-05-09T10:07:38.418Z,99496.14
2019-05-09T10:10:08.347Z,99499.06
2019-05-09T10:12:43.667Z,99496.59
2019-05-09T10:15:19.538Z,99501.78
2019-05-09T10:17:52.817Z,99502.83
2019-05-09T10:20:28.990Z,99502.67
2019-05-09T10:23:11.223Z,99514.38
2019-05-09T10:25:31.424Z,99510.02
2019-05-09T10:28:00.631Z,99510.38
2019-05-09T10:30:31.308Z,99517.45
2019-05-09T10:33:00.499Z,99523.42
2019-05-09T10:35:29.748Z,99520.41
2019-05-09T10:37:59.967Z,99513.97
2019-05-09T10:40:29.128Z,99520.09
2019-05-09T10:43:08.127Z,99523.45
2019-05-09T10:45:41.141Z,99525.02
2019-05-09T10:48:10.387Z,99529.23
2019-05-09T10:50:44.571Z,99534.77
2019-05-09T10:53:10.456Z,99542.40
2019-05-09T10:55:39.677Z,99540.89
2019-05-09T10:58:08.864Z,99542.95
2019-05-09T11:00:40.058Z,99549.77
2019-05-09T11:03:09.146Z,99547.45
2019-05-09T11:05:38.320Z,99553.30
2019-05-09T11:08:08.323Z,99554.77
2019-05-09T11:10:39.653Z,99552.13
2019-05-09T11:13:08.467Z,99560.63
2019-05-09T11:15:37.775Z,99553.66
2019-05-09T11:18:08.076Z,99560.92
2019-05-09T11:20:38.946Z,99559.33
2019-05-09T11:23:08.370Z,99559.40
2019-05-09T11:25:38.188Z,99562.30
2019-05-09T11:28:11.450Z,99564.45
2019-05-09T11:30:38.705Z,99567.48
2019-05-09T11:33:27.814Z,99562.67
2019-05-09T11:35:58.117Z,99574.47
2019-05-09T11:38:34.096Z,99577.52
2019-05-09T11:40:58.420Z,99581.36
2019-05-09T11:43:29.908Z,99572.62
2019-05-09T11:45:58.960Z,99572.11
2019-05-09T11:48:45.973Z,99580.91
2019-05-09T11:51:20.379Z,99573.06
2019-05-09T11:53:48.695Z,99578.02
2019-05-09T11:56:18.296Z,99584.98
2019-05-09T11:58:48.298Z,99580.16
2019-05-09T12:01:18.948Z,99585.97
2019-05-09T12:03:52.049Z,99594.20
2019-05-09T12:06:20.371Z,99597.05
2019-05-09T12:08:50.892Z,99590.16
2019-05-09T12:11:20.213Z,99594.92
2019-05-09T12:13:49.422Z,99594.55
2019-05-09T12:16:18.937Z,99593.98
2019-05-09T12:18:49.030Z,99592.45
2019-05-09T12:21:19.447Z,99601.53
2019-05-09T12:23:49.454Z,99597.17
2019-05-09T12:26:19.086Z,99604.50
2019-05-09T12:28:48.746Z,99603.94
2019-05-09T12:31:18.521Z,99607.56
2019-05-09T12:33:48.587Z,99604.34
2019-05-09T12:36:19.920Z,99605.39
2019-05-09T12:38:50.221Z,99608.88
2019-05-09T12:41:19.608Z,99614.48
2019-05-09T12:43:48.932Z,99621.80
2019-05-09T12:46:40.209Z,99621.80
2019-05-09T12:49:09.437Z,99618.39
2019-05-09T12:51:38.638Z,99623.23
2019-05-09T12:54:08.508Z,99623.97
2019-05-09T12:56:38.601Z,99626.18
2019-05-09T12:59:08.811Z,99626.53
2019-05-09T13:01:40.588Z,99626.75
2019-05-09T13:04:09.740Z,99626.61
2019-05-09T13:06:58.695Z,99625.63
2019-05-09T13:09:28.686Z,99639.83
2019-05-09T13:11:57.979Z,99632.50
2019-05-09T13:14:28.595Z,99637.85
2019-05-09T13:17:07.912Z,99626.75
2019-05-09T13:19:38.340Z,99646.66
2019-05-09T13:22:08.312Z,99655.21
2019-05-09T13:24:37.917Z,99654.84
2019-05-09T13:27:07.939Z,99653.05
2019-05-09T13:29:38.169Z,99653.42
2019-05-09T13:32:08.724Z,99653.61
2019-05-09T13:34:38.301Z,99657.90
2019-05-09T13:37:09.072Z,99652.61
2019-05-09T13:39:39.763Z,99654.20
2019-05-09T13:42:09.310Z,99654.98
2019-05-09T13:44:41.342Z,99651.64
2019-05-09T13:47:10.945Z,99653.54
2019-05-09T13:49:40.478Z,99656.33
2019-05-09T13:52:10.301Z,99650.56
2019-05-09T13:54:39.515Z,99665.87
2019-05-09T13:57:08.923Z,99665.79
2019-05-09T13:59:38.171Z,99664.56
2019-05-09T14:02:07.426Z,99662.58
2019-05-09T14:04:39.580Z,99667.28
2019-05-09T14:07:08.336Z,99656.77
2019-05-09T14:09:38.617Z,99660.23
2019-05-09T14:12:09.320Z,99657.86
2019-05-09T14:14:38.931Z,99661.86
2019-05-09T14:17:08.931Z,99661.60
2019-05-09T14:19:45.476Z,99664.72
2019-05-09T14:22:09.883Z,99663.73
2019-05-09T14:24:39.151Z,99675.16
2019-05-09T14:27:08.423Z,99673.03
2019-05-09T14:29:38.388Z,99673.80
2019-05-09T14:32:07.738Z,99675.80
2019-05-09T14:34:38.197Z,99691.89
2019-05-09T14:37:09.516Z,99689.73
2019-05-09T14:39:54.539Z,99694.29
2019-05-09T14:42:09.626Z,99696.86
2019-05-09T14:44:38.802Z,99704.45
2019-05-09T14:47:08.191Z,99701.89
2019-05-09T14:49:43.226Z,99706.45
2019-05-09T14:52:08.404Z,99704.05
2019-05-09T14:54:39.213Z,99704.05
2019-05-09T14:57:09.653Z,99704.53
2019-05-09T14:59:39.060Z,99712.52
2019-05-09T15:02:09.290Z,99712.16
2019-05-09T15:04:38.805Z,99712.70
2019-05-09T15:07:08.097Z,99713.15
2019-05-09T15:09:37.274Z,99708.78
2019-05-09T15:12:06.475Z,99706.39
2019-05-09T15:14:38.167Z,99718.83
2019-05-09T15:17:08.784Z,99712.08
2019-05-09T15:19:38.547Z,99718.89
2019-05-09T15:22:08.509Z,99715.55
2019-05-09T15:24:38.790Z,99729.94
2019-05-09T15:27:08.204Z,99737.55
2019-05-09T15:29:39.131Z,99742.58
2019-05-09T15:32:12.103Z,99733.33
2019-05-09T15:34:39.153Z,99742.89
2019-05-09T15:37:08.893Z,99745.52
2019-05-09T15:39:39.030Z,99749.06
2019-05-09T15:42:08.191Z,99758.80
2019-05-09T15:44:37.389Z,99751.20
2019-05-09T15:47:23.324Z,99762.01
2019-05-09T15:49:52.517Z,99762.44
2019-05-09T15:52:21.737Z,99761.03
2019-05-09T15:54:52.330Z,99753.05
2019-05-09T15:57:21.524Z,99760.28
2019-05-09T15:59:50.775Z,99753.05
2019-05-09T16:02:22.810Z,99753.60
2019-05-09T16:04:53.013Z,99758.23
2019-05-09T16:07:22.182Z,99755.40
2019-05-09T16:09:51.363Z,99756.89
2019-05-09T16:12:23.281Z,99769.69
2019-05-09T16:14:52.507Z,99770.84
2019-05-09T16:17:21.747Z,99768.13
2019-05-09T16:19:50.982Z,99769.25
2019-05-09T16:22:20.168Z,99759.01
2019-05-09T16:24:49.387Z,99767.70
2019-05-09T16:27:18.896Z,99777.73
2019-05-09T16:29:48.687Z,99778.95
2019-05-09T16:32:18.201Z,99770.27
2019-05-09T16:34:47.376Z,99784.26
2019-05-09T16:37:16.568Z,99782.36
2019-05-09T16:39:47.644Z,99783.20
2019-05-09T16:42:27.580Z,99788.04
2019-05-09T16:44:59.379Z,99790.09
2019-05-09T16:47:28.407Z,99794.22
2019-05-09T16:49:58.054Z,99794.05
2019-05-09T16:52:27.455Z,99800.53
2019-05-09T16:54:58.560Z,99799.45
2019-05-09T16:57:27.838Z,99799.76
2019-05-09T16:59:57.029Z,99801.82
2019-05-09T17:02:28.709Z,99810.63
2019-05-09T17:04:58.046Z,99810.51
2019-05-09T17:07:27.825Z,99812.95
2019-05-09T17:09:57.759Z,99820.63
2019-05-09T17:12:27.098Z,99816.22
2019-05-09T17:14:59.451Z,99825.02
2019-05-09T17:17:27.858Z,99827.66
2019-05-09T17:19:57.333Z,99836.48
2019-05-09T17:22:44.471Z,99835.30
2019-05-09T17:25:13.705Z,99840.92
2019-05-09T17:27:42.966Z,99832.53
2019-05-09T17:30:12.543Z,99843.63
2019-05-09T17:32:41.945Z,99844.70
2019-05-09T17:35:13.883Z,99844.43
2019-05-09T17:37:43.076Z,99853.66
2019-05-09T17:40:15.807Z,99856.73
2019-05-09T17:42:43.310Z,99848.82
2019-05-09T17:45:13.152Z,99849.37
2019-05-09T17:47:42.394Z,99862.44
2019-05-09T17:50:11.896Z,99862.08
2019-05-09T17:52:41.081Z,99865.00
2019-05-09T17:55:10.500Z,99862.80
2019-05-09T17:57:39.700Z,99866.44
2019-05-09T18:00:10.526Z,99865.77
2019-05-09T18:02:39.718Z,99872.45
2019-05-09T18:05:09.013Z,99873.69
2019-05-09T18:07:54.201Z,99873.00
2019-05-09T18:10:23.422Z,99880.30
2019-05-09T18:12:52.756Z,99881.15
2019-05-09T18:15:23.260Z,99872.92
2019-05-09T18:17:55.589Z,99875.56
2019-05-09T18:20:39.033Z,99872.88
2019-05-09T18:23:08.499Z,99877.92
2019-05-09T18:25:41.770Z,99872.12
2019-05-09T18:28:11.032Z,99876.32
2019-05-09T18:30:40.210Z,99876.04
2019-05-09T18:33:11.060Z,99879.27
2019-05-09T18:35:43.243Z,99872.88
2019-05-09T18:38:19.403Z,99878.05
2019-05-09T18:40:48.605Z,99885.29
2019-05-09T18:43:19.403Z,99881.72
2019-05-09T18:45:50.575Z,99887.80
2019-05-09T18:48:19.760Z,99891.18
2019-05-09T18:50:49.106Z,99894.31
2019-05-09T18:53:18.410Z,99893.07
2019-05-09T18:55:47.577Z,99896.86
2019-05-09T18:58:16.787Z,99898.69
2019-05-09T19:00:46.025Z,99911.02
2019-05-09T19:03:15.224Z,99911.01
2019-05-09T19:05:44.392Z,99911.94
2019-05-09T19:08:13.598Z,99915.51
2019-05-09T19:10:42.777Z,99928.86
2019-05-09T19:13:14.085Z,99929.22
2019-05-09T19:15:44.964Z,99934.02
2019-05-09T19:18:21.432Z,99934.13
2019-05-09T19:20:52.297Z,99947.99
2019-05-09T19:23:21.474Z,99938.79
2019-05-09T19:25:50.655Z,99939.41
2019-05-09T19:28:23.674Z,99933.37
2019-05-09T19:30:51.776Z,99947.60
2019-05-09T19:33:21.314Z,99937.79
2019-05-09T19:35:50.521Z,99945.75
2019-05-09T19:38:19.706Z,99938.12
2019-05-09T19:40:48.918Z,99939.06
2019-05-09T19:43:18.164Z,99947.30
2019-05-09T19:45:47.383Z,99943.59
2019-05-09T19:48:16.586Z,99944.82
2019-05-09T19:50:45.775Z,99949.34
2019-05-09T19:53:14.944Z,99946.08
2019-05-09T19:55:44.132Z,99944.23
2019-05-09T19:58:13.478Z,99953.83
2019-05-09T20:00:42.687Z,99953.30
2019-05-09T20:03:11.872Z,99957.86
2019-05-09T20:05:41.052Z,99957.63
2019-05-09T20:08:10.237Z,99960.34
2019-05-09T20:10:57.530Z,99957.93
2019-05-09T20:13:28.361Z,99959.53
2019-05-09T20:15:57.824Z,99969.52
2019-05-09T20:18:27.034Z,99973.67
2019-05-09T20:20:56.506Z,99967.74
2019-05-09T20:23:25.769Z,99972.34
2019-05-09T20:25:54.928Z,99964.00
2019-05-09T20:28:24.392Z,99969.30
2019-05-09T20:30:55.239Z,99969.80
2019-05-09T20:33:24.444Z,99980.03
2019-05-09T20:35:53.605Z,99973.15
2019-05-09T20:38:22.980Z,99979.43
2019-05-09T20:40:52.318Z,99982.45
2019-05-09T20:43:21.751Z,99987.49
2019-05-09T20:45:51.369Z,99983.20
2019-05-09T20:48:20.767Z,99992.59
2019-05-09T20:50:50.145Z,99989.66
2019-05-09T20:53:19.522Z,99989.99
2019-05-09T20:55:48.898Z,99989.14
2019-05-09T20:58:18.286Z,99996.14
2019-05-09T21:00:47.798Z,99991.33
2019-05-09T21:03:17.171Z,99992.02
2019-05-09T21:05:47.981Z,99988.81
2019-05-09T21:08:17.343Z,99986.45
2019-05-09T21:10:46.706Z,99988.34
2019-05-09T21:13:16.160Z,99989.61
2019-05-09T21:15:45.518Z,99982.20
2019-05-09T21:18:14.950Z,99986.48
2019-05-09T21:20:44.372Z,99986.86
2019-05-09T21:23:24.250Z,99990.81
2019-05-09T21:25:44.873Z,99978.24
2019-05-09T21:28:14.261Z,99984.97
2019-05-09T21:30:45.156Z,99990.76
2019-05-09T21:33:14.552Z,99991.58
2019-05-09T21:35:43.772Z,99994.05
2019-05-09T21:38:12.942Z,99996.45
2019-05-09T21:40:42.212Z,100000.06
2019-05-09T21:43:11.402Z,99999.29
2019-05-09T21:45:43.137Z,100007.28
2019-05-09T21:48:12.334Z,100002.30
2019-05-09T21:50:41.521Z,100009.05
2019-05-09T21:53:10.757Z,100010.61
2019-05-09T21:55:39.938Z,100000.31
2019-05-09T21:58:09.138Z,100009.30
2019-05-09T22:00:40.959Z,100009.40
2019-05-09T22:03:10.317Z,100011.59
2019-05-09T22:05:39.544Z,100010.47
2019-05-09T22:08:08.991Z,100007.38
2019-05-09T22:10:38.165Z,100013.80
2019-05-09T22:13:07.353Z,100011.72
2019-05-09T22:15:36.597Z,100011.10
2019-05-09T22:18:05.927Z,100007.34
2019-05-09T22:20:35.153Z,100004.45
2019-05-09T22:23:06.394Z,100003.14
2019-05-09T22:25:35.213Z,100014.77
2019-05-09T22:28:04.563Z,100011.77
2019-05-09T22:30:33.788Z,100012.41
2019-05-09T22:33:02.967Z,100017.25
2019-05-09T22:35:32.159Z,100014.81
2019-05-09T22:38:01.369Z,100014.34
2019-05-09T22:40:30.572Z,100018.77
2019-05-09T22:42:59.765Z,100033.33
2019-05-09T22:45:28.950Z,100038.95
2019-05-09T22:47:59.154Z,100041.47
2019-05-09T22:50:28.420Z,100042.36
2019-05-09T22:52:57.585Z,100052.05
2019-05-09T22:55:26.786Z,100065.63
2019-05-09T22:57:55.946Z,100065.63
2019-05-09T23:00:25.292Z,100085.03
2019-05-09T23:02:54.471Z,100085.34
2019-05-09T23:05:23.777Z,100085.34
2019-05-09T23:07:52.981Z,100102.19
2019-05-09T23:10:22.158Z,100102.19
2019-05-09T23:12:51.381Z,100104.02
2019-05-09T23:15:20.719Z,100109.45
2019-05-09T23:17:49.891Z,100115.63
2019-05-09T23:20:37.136Z,100122.55
2019-05-09T23:23:22.901Z,100125.09
2019-05-09T23:25:52.156Z,100125.09
2019-05-09T23:28:21.342Z,100130.50
2019-05-09T23:30:52.248Z,100131.25
2019-05-09T23:33:22.198Z,100129.77
2019-05-09T23:35:51.411Z,100125.07
2019-05-09T23:38:20.920Z,100140.48
2019-05-09T23:40:50.191Z,100144.06
2019-05-09T23:43:19.383Z,100148.55
2019-05-09T23:45:48.577Z,100150.05
2019-05-09T23:48:17.759Z,100150.73
2019-05-09T23:50:46.945Z,100150.11
2019-05-09T23:53:20.851Z,100153.14
2019-05-09T23:56:07.427Z,100159.88
2019-05-09T23:58:54.612Z,100167.34
